Terminal Aerodrome Forecast
Issued by NWS North Platte, NE

Home | Current Version | Previous Version | Text Only | Print | Product List | Glossary Off
Versions: 1 2 3 4 5 6 7 8 9 10 11 12 13 14

878
FTUS43 KLBF 271136
TAFVTN
TAF
KVTN 271136Z 2712/2812 01005KT P6SM VCSH BKN060
     FM271400 01014G20KT 5SM -SHRA OVC025
     FM271900 01013KT P6SM OVC025
     FM280000 36010KT P6SM BKN015
     FM280800 33005KT P6SM BKN100=

USA.gov is the U.S. government's official web portal to all federal, state and local government web resources and services.